createdAt,value
2023-01-18T00:06:29.267Z,-0.20
2023-01-18T00:10:40.630Z,-0.32
2023-01-18T00:15:09.761Z,-0.41
2023-01-18T00:19:21.269Z,-0.56
2023-01-18T00:45:19.633Z,-0.90
2023-01-18T00:49:48.410Z,-0.96
2023-01-18T00:54:17.079Z,-0.99
2023-01-18T00:58:46.302Z,-1.02
2023-01-18T01:03:16.552Z,-1.08
2023-01-18T01:43:23.043Z,-1.01
2023-01-18T01:47:55.098Z,-0.99
2023-01-18T02:14:07.966Z,-0.60
2023-01-18T02:18:55.151Z,-0.56
2023-01-18T02:55:26.948Z,-0.56
2023-01-18T03:00:04.089Z,-0.60
2023-01-18T03:04:32.785Z,-0.65
2023-01-18T03:12:58.603Z,-0.68
2023-01-18T03:17:30.877Z,-0.72
2023-01-18T03:22:00.643Z,-0.79
2023-01-18T03:43:57.293Z,-0.89
2023-01-18T03:48:26.605Z,-0.94
2023-01-18T03:52:58.489Z,-0.96
2023-01-18T04:14:39.090Z,-0.85
2023-01-18T04:18:57.090Z,-0.87
2023-01-18T04:23:12.004Z,-0.85
2023-01-18T04:27:41.199Z,-0.84
2023-01-18T04:32:10.737Z,-0.84
2023-01-18T04:49:22.124Z,-1.06
2023-01-18T04:53:42.338Z,-1.11
2023-01-18T04:58:10.975Z,-1.12
2023-01-18T05:02:41.170Z,-1.07
2023-01-18T05:07:10.266Z,-1.04
2023-01-18T05:11:32.002Z,-1.03
2023-01-18T05:37:36.103Z,-0.97
2023-01-18T05:41:48.827Z,-1.03
2023-01-18T05:46:08.938Z,-1.06
2023-01-18T06:03:27.683Z,-0.97
2023-01-18T06:07:56.939Z,-0.93
2023-01-18T06:12:27.158Z,-0.88
2023-01-18T06:16:54.389Z,-0.85
2023-01-18T06:25:17.506Z,-0.74
2023-01-18T06:29:46.824Z,-0.70
2023-01-18T06:34:12.818Z,-0.66
2023-01-18T06:56:53.873Z,-0.49
2023-01-18T07:01:23.255Z,-0.45
2023-01-18T07:05:52.062Z,-0.40
2023-01-18T07:10:16.212Z,-0.41
2023-01-18T07:14:39.083Z,-0.41
2023-01-18T07:19:07.433Z,-0.38
2023-01-18T07:40:26.607Z,-0.17
2023-01-18T07:44:55.450Z,-0.20
2023-01-18T07:49:07.528Z,-0.21
2023-01-18T07:53:19.933Z,-0.16
2023-01-18T07:57:28.486Z,-0.10
2023-01-18T08:01:57.345Z,-0.05
2023-01-18T08:06:26.781Z,-0.09
2023-01-18T08:09:59.016Z,-0.08
2023-01-18T08:14:19.332Z,-0.13
2023-01-18T08:44:39.315Z,0.11
2023-01-18T08:49:08.051Z,0.17
2023-01-18T08:53:37.217Z,0.18
2023-01-18T08:58:07.363Z,0.19
2023-01-18T09:19:19.095Z,0.65
2023-01-18T09:23:47.846Z,0.70
2023-01-18T09:28:09.753Z,0.73
2023-01-18T09:32:13.667Z,0.77
2023-01-18T09:36:41.155Z,0.82
2023-01-18T09:41:05.920Z,0.86
2023-01-18T09:58:15.350Z,1.30
2023-01-18T10:02:26.175Z,1.40
2023-01-18T10:06:56.484Z,1.43
2023-01-18T10:11:30.834Z,1.53
2023-01-18T10:16:03.845Z,1.64
2023-01-18T10:42:19.374Z,1.96
2023-01-18T10:46:54.080Z,1.90
2023-01-18T10:51:14.626Z,1.93
2023-01-18T11:08:53.333Z,2.13
2023-01-18T11:13:26.271Z,2.18
2023-01-18T11:17:41.097Z,2.21
2023-01-18T11:22:19.290Z,2.21
2023-01-18T11:26:40.286Z,2.25
2023-01-18T12:07:24.728Z,2.86
2023-01-18T12:11:45.566Z,2.90
2023-01-18T12:16:18.907Z,2.88
2023-01-18T12:21:06.611Z,2.85
2023-01-18T12:25:45.803Z,2.76
2023-01-18T12:52:25.453Z,2.77
2023-01-18T12:56:16.041Z,2.80
2023-01-18T13:00:46.425Z,2.80
2023-01-18T13:22:29.763Z,2.81
2023-01-18T13:26:31.790Z,2.77
2023-01-18T13:31:02.119Z,2.71
2023-01-18T13:35:38.820Z,2.61
2023-01-18T13:39:33.072Z,2.50
2023-01-18T13:44:14.205Z,2.46
2023-01-18T14:06:05.697Z,2.44
2023-01-18T14:18:50.270Z,2.27
2023-01-18T14:50:47.970Z,1.94
2023-01-18T15:29:49.199Z,1.81
2023-01-18T15:33:30.442Z,1.82
2023-01-18T15:38:05.525Z,1.84
2023-01-18T15:42:22.601Z,1.86
2023-01-18T16:20:55.323Z,2.05
2023-01-18T16:25:43.488Z,1.99
2023-01-18T16:29:45.107Z,2.00
2023-01-18T16:33:36.525Z,2.00
2023-01-18T16:37:44.826Z,2.03
2023-01-18T16:42:13.823Z,2.07
2023-01-18T16:46:12.307Z,2.10
2023-01-18T16:50:32.780Z,2.12
2023-01-18T16:54:55.188Z,2.10
2023-01-18T17:41:22.860Z,2.03
2023-01-18T17:45:59.797Z,2.00
2023-01-18T17:50:30.284Z,1.98
2023-01-18T17:54:38.270Z,1.96
2023-01-18T17:58:57.300Z,1.91
2023-01-18T18:02:38.624Z,1.90
2023-01-18T18:05:52.509Z,1.90
2023-01-18T18:09:51.450Z,1.88
2023-01-18T18:14:03.151Z,1.88
2023-01-18T18:21:59.691Z,1.94
2023-01-18T18:26:21.234Z,1.93
2023-01-18T18:29:54.188Z,1.88
2023-01-18T18:34:08.418Z,1.84
2023-01-18T18:38:10.026Z,1.83
2023-01-18T18:42:24.489Z,1.82
2023-01-18T18:46:26.245Z,1.83
2023-01-18T18:50:54.779Z,1.85
2023-01-18T18:55:10.443Z,1.89
2023-01-18T18:59:04.868Z,1.90
2023-01-18T19:03:19.315Z,1.92
2023-01-18T19:07:20.258Z,1.93
2023-01-18T19:31:22.408Z,2.02
2023-01-18T19:35:33.704Z,2.05
2023-01-18T19:47:35.619Z,2.07
2023-01-18T19:51:57.730Z,2.07
2023-01-18T20:00:21.200Z,2.08
2023-01-18T20:16:32.285Z,2.09
2023-01-18T20:38:00.439Z,1.99
2023-01-18T20:42:27.462Z,1.93
2023-01-18T20:46:35.320Z,1.89
2023-01-18T20:54:34.761Z,1.87
2023-01-18T20:58:43.964Z,1.83
2023-01-18T21:02:25.075Z,1.78
2023-01-18T21:06:25.211Z,1.72
2023-01-18T21:31:23.526Z,1.49
2023-01-18T21:35:52.780Z,1.41
2023-01-18T21:40:21.300Z,1.34
2023-01-18T21:44:40.010Z,1.26
2023-01-18T21:48:53.366Z,1.19
2023-01-18T21:52:57.199Z,1.13
2023-01-18T21:56:49.461Z,1.10
2023-01-18T22:21:02.981Z,0.87
2023-01-18T22:24:52.503Z,0.80
2023-01-18T22:28:54.800Z,0.73
2023-01-18T22:33:15.992Z,0.67
2023-01-18T23:10:44.308Z,0.02
2023-01-18T23:14:56.772Z,-0.03
2023-01-18T23:32:08.794Z,-0.19
2023-01-18T23:35:31.974Z,-0.23
2023-01-18T23:39:30.726Z,-0.27
2023-01-18T23:43:56.521Z,-0.30
2023-01-18T23:48:24.341Z,-0.34
2023-01-18T23:52:52.115Z,-0.37
2023-01-18T23:57:17.713Z,-0.42
